地図

経路データ

SID SEASON NUMBER BASIN SUBBASIN NAME ISO_TIME NATURE LAT LON WMO_WIND WMO_PRES WMO_AGENCY TRACK_TYPE DIST2LAND LANDFALL IFLAG USA_AGENCY USA_ATCF_ID USA_LAT USA_LON USA_RECORD USA_STATUS USA_WIND USA_PRES USA_SSHS USA_R34_NE USA_R34_SE USA_R34_SW USA_R34_NW USA_R50_NE USA_R50_SE USA_R50_SW USA_R50_NW USA_R64_NE USA_R64_SE USA_R64_SW USA_R64_NW USA_POCI USA_ROCI USA_RMW USA_EYE TOKYO_LAT TOKYO_LON TOKYO_GRADE TOKYO_WIND TOKYO_PRES TOKYO_R50_DIR TOKYO_R50_LONG TOKYO_R50_SHORT TOKYO_R30_DIR TOKYO_R30_LONG TOKYO_R30_SHORT TOKYO_LAND CMA_LAT CMA_LON CMA_CAT CMA_WIND CMA_PRES HKO_LAT HKO_LON HKO_CAT HKO_WIND HKO_PRES NEWDELHI_LAT NEWDELHI_LON NEWDELHI_GRADE NEWDELHI_WIND NEWDELHI_PRES NEWDELHI_CI NEWDELHI_DP NEWDELHI_POCI REUNION_LAT REUNION_LON REUNION_TYPE REUNION_WIND REUNION_PRES REUNION_TNUM REUNION_CI REUNION_RMW REUNION_R34_NE REUNION_R34_SE REUNION_R34_SW REUNION_R34_NW REUNION_R50_NE REUNION_R50_SE REUNION_R50_SW REUNION_R50_NW REUNION_R64_NE REUNION_R64_SE REUNION_R64_SW REUNION_R64_NW BOM_LAT BOM_LON BOM_TYPE BOM_WIND BOM_PRES BOM_TNUM BOM_CI BOM_RMW BOM_R34_NE BOM_R34_SE BOM_R34_SW BOM_R34_NW BOM_R50_NE BOM_R50_SE BOM_R50_SW BOM_R50_NW BOM_R64_NE BOM_R64_SE BOM_R64_SW BOM_R64_NW BOM_ROCI BOM_POCI BOM_EYE BOM_POS_METHOD BOM_PRES_METHOD NADI_LAT NADI_LON NADI_CAT NADI_WIND NADI_PRES WELLINGTON_LAT WELLINGTON_LON WELLINGTON_WIND WELLINGTON_PRES DS824_LAT DS824_LON DS824_STAGE DS824_WIND DS824_PRES TD9636_LAT TD9636_LON TD9636_STAGE TD9636_WIND TD9636_PRES TD9635_LAT TD9635_LON TD9635_WIND TD9635_PRES TD9635_ROCI NEUMANN_LAT NEUMANN_LON NEUMANN_CLASS NEUMANN_WIND NEUMANN_PRES MLC_LAT MLC_LON MLC_CLASS MLC_WIND MLC_PRES USA_GUST BOM_GUST BOM_GUST_PER REUNION_GUST REUNION_GUST_PER USA_SEAHGT USA_SEARAD_NE USA_SEARAD_SE USA_SEARAD_SW USA_SEARAD_NW STORM_SPEED STORM_DIR
1902127N12055 1902 15 NI AS NOT_NAMED 1902-05-07 00:00:00 TS 11.7000 55.3000 main 133 124 _________O____ -1 11.7000 55.3000 TC 34 3 28
1902127N12055 1902 15 NI AS NOT_NAMED 1902-05-07 03:00:00 TS 11.8400 55.3650 main 132 118 _________PO___ -1 11.9100 55.3975 TC 36 11.7000 55.3000 2 4 27
1902127N12055 1902 15 NI AS NOT_NAMED 1902-05-07 06:00:00 TS 12.0144 55.4618 main 127 117 _________OP___ -1 12.1000 55.5000 TC 39 11.8860 55.4046 2 4 30
1902127N12055 1902 15 NI AS NOT_NAMED 1902-05-07 09:00:00 TS 12.1761 55.5646 main 127 124 _________PP___ -1 12.2575 55.6075 TC 42 12.0675 55.5074 2 4 31
1902127N12055 1902 15 NI AS NOT_NAMED 1902-05-07 12:00:00 TS 12.3202 55.6532 main 134 130 _________OP___ -1 12.4000 55.7000 TC 45 12.2403 55.6065 2 3 28
1902127N12055 1902 15 NI AS NOT_NAMED 1902-05-07 15:00:00 TS 12.4787 55.7250 main 130 130 _________PO___ -1 12.5575 55.7500 TC 49 12.4000 55.7000 3 3 24
1902127N12055 1902 15 NI AS NOT_NAMED 1902-05-07 18:00:00 TS 12.6217 55.7931 main 141 141 _________OP___ -1 12.7000 55.8000 TC 54 12.5434 55.7863 3 3 31
1902127N12055 1902 15 NI AS NOT_NAMED 1902-05-07 21:00:00 TS 12.7400 55.8825 main 152 152 _________PP___ -1 12.8075 55.9000 TC 59 12.6725 55.8650 3 3 38
1902127N12055 1902 15 NI AS NOT_NAMED 1902-05-08 00:00:00 TS 12.8452 55.9681 main 164 164 _________OP___ -1 12.9000 56.0000 TC 64 12.7903 55.9363 3 3 34
1902127N12055 1902 15 NI AS NOT_NAMED 1902-05-08 03:00:00 TS 12.9500 56.0288 main 168 166 _________PO___ -1 13.0000 56.0575 TC 64 12.9000 56.0000 4 2 29
1902127N12055 1902 15 NI AS NOT_NAMED 1902-05-08 06:00:00 TS 13.0536 56.0806 main 182 182 _________OP___ -1 13.1000 56.1000 TC 64 13.0072 56.0613 4 2 28
1902127N12055 1902 15 NI AS NOT_NAMED 1902-05-08 09:00:00 TS 13.1537 56.1325 main 186 186 _________PP___ -1 13.2000 56.1500 TC 64 13.1075 56.1150 4 2 26
1902127N12055 1902 15 NI AS NOT_NAMED 1902-05-08 12:00:00 TS 13.2520 56.1806 main 200 200 _________OP___ -1 13.3000 56.2000 TC 64 13.2041 56.1613 4 2 27
1902127N12055 1902 15 NI AS NOT_NAMED 1902-05-08 15:00:00 TS 13.3500 56.2287 main 204 204 _________PO___ -1 13.4000 56.2575 TC 64 13.3000 56.2000 4 2 20
1902127N12055 1902 15 NI AS NOT_NAMED 1902-05-08 18:00:00 TS 13.4419 56.2560 main 214 214 _________OP___ -1 13.5000 56.3000 TC 64 13.3837 56.2120 4 2 0
1902127N12055 1902 15 NI AS NOT_NAMED 1902-05-08 21:00:00 TS 13.5275 56.2526 main 219 219 _________PP___ -1 13.5850 56.2851 TC 64 13.4699 56.2202 4 2 2
1902127N12055 1902 15 NI AS NOT_NAMED 1902-05-09 00:00:00 TS 13.6356 56.2717 main 224 224 _________OP___ -1 13.7000 56.3000 TC 64 13.5712 56.2433 4 3 22
1902127N12055 1902 15 NI AS NOT_NAMED 1902-05-09 03:00:00 TS 13.7925 56.3637 main 245 245 _________PO___ -1 13.8850 56.4275 TC 64 13.7000 56.3000 4 4 32
1902127N12055 1902 15 NI AS NOT_NAMED 1902-05-09 06:00:00 TS 13.9877 56.5029 main 267 267 _________OP___ -1 14.1000 56.6000 TC 64 13.8753 56.4059 4 5 35
1902127N12055 1902 15 NI AS NOT_NAMED 1902-05-09 09:00:00 TS 14.1887 56.6450 main 289 289 _________PP___ -1 14.3000 56.7425 TC 64 14.0775 56.5474 4 5 36
1902127N12055 1902 15 NI AS NOT_NAMED 1902-05-09 12:00:00 TS 14.3955 56.8076 main 320 320 _________OP___ -1 14.5000 56.9000 TC 64 14.2909 56.7153 4 5 39
1902127N12055 1902 15 NI AS NOT_NAMED 1902-05-09 15:00:00 TS 14.6038 56.9962 main 343 333 _________PO___ -1 14.7075 57.0925 TC 64 14.5000 56.9000 4 5 44
1902127N12055 1902 15 NI AS NOT_NAMED 1902-05-09 18:00:00 TS 14.7748 57.1849 main 336 334 _________OP___ -1 14.9000 57.3000 TC 64 14.6496 57.0698 4 5 50
1902127N12055 1902 15 NI AS NOT_NAMED 1902-05-09 21:00:00 TS 14.9086 57.3705 main 341 333 _________PP___ -1 15.0199 57.4852 TC 64 14.7973 57.2557 4 5 51
1902127N12055 1902 15 NI AS NOT_NAMED 1902-05-10 00:00:00 TS 15.0857 57.5819 main 338 317 _________OP___ -1 15.2000 57.7000 TC 64 14.9714 57.4637 4 7 44
1902127N12055 1902 15 NI AS NOT_NAMED 1902-05-10 03:00:00 TS 15.3850 57.8424 main 317 305 _________PO___ -1 15.5700 57.9849 TC 64 15.2000 57.7000 4 9 38
1902127N12055 1902 15 NI AS NOT_NAMED 1902-05-10 06:00:00 TS 15.7689 58.1334 main 296 292 _________OP___ -1 16.0000 58.3000 TC 64 15.5378 57.9668 4 10 37
1902127N12055 1902 15 NI AS NOT_NAMED 1902-05-10 09:00:00 TS 16.1500 58.4310 main 292 285 _________PP___ -1 16.3725 58.6001 TC 64 15.9275 58.2620 4 9 38
1902127N12055 1902 15 NI AS NOT_NAMED 1902-05-10 12:00:00 TS 16.5142 58.7381 main 285 276 _________OP___ -1 16.7000 58.9000 TC 64 16.3284 58.5762 4 9 41
1902127N12055 1902 15 NI AS NOT_NAMED 1902-05-10 15:00:00 TS 16.8325 59.0463 main 276 265 _________PO___ -1 16.9649 59.1927 TC 64 16.7000 58.9000 4 8 46
1902127N12055 1902 15 NI AS NOT_NAMED 1902-05-10 18:00:00 TS 17.0930 59.3652 main 271 268 _________OP___ -1 17.2000 59.5000 TC 64 16.9859 59.2303 4 8 51
1902127N12055 1902 15 NI AS NOT_NAMED 1902-05-10 21:00:00 TS 17.3438 59.7115 main 276 268 _________PP___ -1 17.4500 59.8575 TC 64 17.2375 59.5654 4 8 53
1902127N12055 1902 15 NI AS NOT_NAMED 1902-05-11 00:00:00 TS 17.5852 60.0464 main 280 280 _________OP___ -1 17.7000 60.2000 TC 64 17.4703 59.8928 4 8 51
1902127N12055 1902 15 NI AS NOT_NAMED 1902-05-11 03:00:00 TS 17.8250 60.3326 main 295 295 _________PO___ -1 17.9499 60.4651 TC 64 17.7000 60.2000 4 7 46
1902127N12055 1902 15 NI AS NOT_NAMED 1902-05-11 06:00:00 TS 18.0769 60.5859 main 311 311 _________OP___ -1 18.2000 60.7000 TC 64 17.9538 60.4719 4 7 43
1902127N12055 1902 15 NI AS NOT_NAMED 1902-05-11 09:00:00 TS 18.3323 60.8365 main 325 325 _________PP___ -1 18.4575 60.9500 TC 64 18.2072 60.7229 4 7 43
1902127N12055 1902 15 NI AS NOT_NAMED 1902-05-11 12:00:00 TS 18.5785 61.0812 main 338 338 _________OP___ -1 18.7000 61.2000 TC 64 18.4570 60.9625 4 7 45
1902127N12055 1902 15 NI AS NOT_NAMED 1902-05-11 15:00:00 TS 18.8000 61.3251 main 343 343 _________PO___ -1 18.9000 61.4501 TC 64 18.7000 61.2000 4 6 47
1902127N12055 1902 15 NI AS NOT_NAMED 1902-05-11 18:00:00 TS 18.9934 61.5534 main 357 350 _________OP___ -1 19.1000 61.7000 TC 64 18.8869 61.4069 4 6 47
1902127N12055 1902 15 NI AS NOT_NAMED 1902-05-11 21:00:00 TS 19.1894 61.7628 main 358 350 _________PP___ -1 19.3047 61.9056 TC 64 19.0740 61.6200 4 6 45
1902127N12055 1902 15 NI AS NOT_NAMED 1902-05-12 00:00:00 TS 19.4496 62.0365 main 359 359 _________OP___ -1 19.6000 62.2000 TC 64 19.2991 61.8731 4 9 46
1902127N12055 1902 15 NI AS NOT_NAMED 1902-05-12 03:00:00 TS 19.8314 62.4561 main 378 372 _________PO___ -1 20.0628 62.7121 TC 64 19.6000 62.2000 4 12 46
1902127N12055 1902 15 NI AS NOT_NAMED 1902-05-12 06:00:00 TS 20.3024 62.9629 main 393 387 _________OP___ -1 20.6000 63.3000 TC 64 20.0048 62.6259 4 13 45
1902127N12055 1902 15 NI AS NOT_NAMED 1902-05-12 09:00:00 TS 20.7860 63.4583 main 413 409 _________PP___ -1 21.0846 63.7858 TC 64 20.4875 63.1307 4 14 44
1902127N12055 1902 15 NI AS NOT_NAMED 1902-05-12 12:00:00 TS 21.3132 63.9977 main 437 368 _________OP___ -1 21.6000 64.3000 TC 64 21.0264 63.6953 4 15 44
1902127N12055 1902 15 NI AS NOT_NAMED 1902-05-12 15:00:00 TS 21.8925 64.6138 main 368 287 _________PO___ -1 22.1850 64.9276 TC 55 21.6000 64.3000 4 16 45
1902127N12055 1902 15 NI AS NOT_NAMED 1902-05-12 18:00:00 TS 22.4690 65.2462 main 280 197 _________OP___ -1 22.8000 65.6000 TC 47 22.1381 64.8924 4 16 45
1902127N12055 1902 15 NI AS NOT_NAMED 1902-05-12 21:00:00 TS 23.0392 65.8755 main 189 101 _________PP___ -1 23.3694 66.2290 TC 38 22.7089 65.5220 4 17 45
1902127N12055 1902 15 NI AS NOT_NAMED 1902-05-13 00:00:00 TS 23.6626 66.5452 main 97 15 _________OP___ -1 24.0000 66.9000 TC 30 23.3252 66.1905 4 19 44
1902127N12055 1902 15 NI AS NOT_NAMED 1902-05-13 03:00:00 TS 24.3850 67.2888 main 0 0 _________PO___ -1 24.7699 67.6777 TC 30 24.0000 66.9000 1 21 43
1902127N12055 1902 15 NI AS NOT_NAMED 1902-05-13 06:00:00 TS 25.1751 68.0746 main 0 0 _________OP___ -1 25.6000 68.5000 TC 30 24.7502 67.6491 1 21 42
1902127N12055 1902 15 NI AS NOT_NAMED 1902-05-13 09:00:00 TS 25.9807 68.8673 main 0 0 _________PP___ -1 26.4069 69.2936 TC 30 25.5544 68.4409 1 22 42
1902127N12055 1902 15 NI AS NOT_NAMED 1902-05-13 12:00:00 TS 26.7906 69.6813 main 0 0 _________OP___ -1 27.2000 70.1000 TC 30 26.3813 69.2625 1 22 43
1902127N12055 1902 15 NI AS NOT_NAMED 1902-05-13 15:00:00 TS 27.5786 70.5218 main 0 0 _________PO___ -1 27.9571 70.9437 TC 30 27.2000 70.1000 1 21 44
1902127N12055 1902 15 NI AS NOT_NAMED 1902-05-13 18:00:00 TS 28.2924 71.3094 main 0 0 _________OP___ -1 28.7000 71.8000 TC 30 27.9867 70.9415 1 20 44
1902127N12055 1902 15 NI AS NOT_NAMED 1902-05-13 21:00:00 TS 29.0255 72.1320 main 0 0 _________PP___ -1 29.4485 72.6499 TC 30 28.7434 71.7868 1 20 45
1902127N12055 1902 15 NI AS NOT_NAMED 1902-05-14 00:00:00 TS 29.7191 72.9258 main 0 0 _________OP___ -1 30.2000 73.5000 TC 30 29.4786 72.6387 1 17 45
1902127N12055 1902 15 NI AS NOT_NAMED 1902-05-14 03:00:00 NR 30.2000 73.5000 main 0 __________O___ -1 TC 30.2000 73.5000 1 14 46

IBTrACS Databaseについて

本データベースは、米国NOAAが公開する1842年以降の世界の熱帯低気圧のベストトラックデータアーカイブInternational Best Track Archive for Climate Stewardship (IBTrACS)を、ウェブで閲覧しやすい形式に変換したものです。

最終更新日:2021-11-26